KLSVKPGA

Guest
Details From KLSV - Nellis AFB
To KPGA - PAGE MUNI
Flight Number -
Tags generated
Created
Modified
Stats Distance 178 nm / 329 km
Max Altitude 19,900 ft / 6,066 m
Waypoints 3
Social Downloads 1
Likes 0
Share VATSIM

Download

Looking for another format? Having issues loading an existing format? Contact us
Advertisement - Login to hide

Notes

Basic altitude profile: - Ascent Rate: 2500ft/min - Ascent Speed: 250kts - Cruise Altitude: 35000ft - Cruise Speed: 420kts - Descent Rate: 1500ft/min - Descent Speed: 250kts Options: - Use NATs: yes - Use PACOTS: yes - Use low airways: yes - Use high airways: yes

Route

KLSV NOOTN KPGA

ID Type Via Altitude Latitude Longitude Leg Dist Tot Dist Heading (true) Name
O KLSV APT - 0 ft / 0 m 36.23620˚ -115.03425˚ - 0 nm - Nellis AFB
NOOTN FIX - 19,900 ft / 6,066 m 36.62573˚ -113.34451˚ 84 nm 84 nm 74° / 75° -
O KPGA APT - 0 ft / 0 m 36.92718˚ -111.44882˚ 92 nm 177 nm 78° / 79° PAGE MUNI

Altitude Profile

Advertisement - Login to hide

Weather


0- 5 10 15 20 25 30 35+ Temperature / ° C

Clouds and Precipitation
Forecast for 2017-12-13 00:00 UTC. Updated an hour ago

Ground ~20,000 ft ~40,000 ft Winds

KLSV

Details ICAO KLSV (LSV)
Name Nellis AFB
Region United States
Timezone America/Los_Angeles (UTC-8.0)
Stats Elevation 1,870 ft / 570 m (AMSL)
Location 36.236196° -115.034250°
Runways 2
Magnetic Variation 11.651° E

METAR

KLSV 122158Z AUTO 00000KT 10SM CLR 18/M20 A3022 RMK AO2 SLP232 T01791203 $

Decode

TAF

TAF KLSV 121500Z 1215/1321 VRB06KT 9999 SKC 510022 QNH3011INS TX19/1220Z TN00/1215Z

Decode

Departure Runways

ID Width Length Bearing (true) Bearing (mag) Surface Threshold Offset Overrun Length
03L 220 ft / 67 m 10,126 ft / 3,086 m 41.15° 29.50° Concrete 0 ft / 0 m 1,000 ft / 305 m
03R 150 ft / 46 m 10,057 ft / 3,066 m 41.15° 29.50° Concrete 0 ft / 0 m 1,000 ft / 305 m
21L 150 ft / 46 m 10,057 ft / 3,066 m 221.17° 209.52° Concrete 0 ft / 0 m 1,000 ft / 305 m
21R 220 ft / 67 m 10,126 ft / 3,086 m 221.17° 209.52° Concrete 0 ft / 0 m 1,000 ft / 305 m

KPGA

Details ICAO KPGA (PGA)
Name PAGE MUNI
Region United States
Timezone America/Denver (UTC-7.0)
Stats Elevation 4,313 ft / 1,315 m (AMSL)
Location 36.927176° -111.448815°
Runways 2
Magnetic Variation 10.662° E

METAR

KPGA 122153Z AUTO 00000KT 10SM CLR 09/M09 A3036 RMK AO2 SLP281 T00941094 TSNO

Decode

TAF

TAF KPGA 121720Z 1218/1318 VRB05KT P6SM SKC

Decode

Destination Runways

ID Width Length Bearing (true) Bearing (mag) Surface Threshold Offset Overrun Length
07 100 ft / 30 m 2,196 ft / 669 m 82.10° 71.44° Asphalt 588 ft / 179 m 0 ft / 0 m
15 150 ft / 46 m 5,959 ft / 1,816 m 170.27° 159.61° Asphalt 0 ft / 0 m 0 ft / 0 m
25 100 ft / 30 m 2,196 ft / 669 m 262.10° 251.44° Asphalt 0 ft / 0 m 0 ft / 0 m
33 150 ft / 46 m 5,959 ft / 1,816 m 350.27° 339.61° Asphalt 0 ft / 0 m 0 ft / 0 m